Molokai Airport Kaunakakai US
ICAO: PHMK
IATA:
Category: Medium
Scheduled Services:

Elevation: 454 ft
TransAlt. 18000 ft.

Airport Communications:
ATIS:128.2
HONOLULU CNTR:124.1
CTAF:125.7
GND:121.9
HONOLULU RDO:116.1
TWR:125.7

PHMK Zoom In..

Runways:

(A) RW 05 length 4494 ft width 100 ft
---- / hdg 49

(B) RW 17 length 3118 ft width 100 ft
---- / hdg 169

(C) RW 23 length 4494 ft width 100 ft
---- / hdg 229

(D) RW 35 length 3118 ft width 100 ft
---- / hdg 349

Location; PHMK
Day. 29 / Time. 21.54 Zulu
* Altimeter: 30.15
* Temperature: 27° c. 80.6°f.
* Wind from: 040° Speed 14 kn with Gusts up to 24 kn.
Dewpoint: 19° c.
Visibility: 10 Statute Miles.
Clouds: Few 3000 ft.

PHMK 292154Z 04014G24KT 10SM FEW030 27/19 A3015 RMK AO2 SLP210 T02720189


Wind From 040°
Speed 14 kn.

 
 
jpsmedia worldairports.se 2020   terms of use